Time;durP1;ratioP1;P1;durP2;ratioP2;P2;SDS_P1;SDS_P2;PMS_P1;PMS_P2;Temp;Humidity;BMP_temperature;BMP_pressure;BME280_temperature;BME280_humidity;BME280_pressure;Samples;Min_cycle;Max_cycle;Signal;HPM_P1;HPM_P2
2023/01/31 00:00:01;;;;;;;16.60;15.40;;;4.40;99.90;;;;;;4997235;28;20437;-44
2023/01/31 00:02:27;;;;;;;16.73;15.53;;;4.40;99.90;;;;;;4992914;28;20211;-49
2023/01/31 00:04:52;;;;;;;16.93;15.37;;;4.30;99.90;;;;;;4994414;28;20199;-45
2023/01/31 00:07:18;;;;;;;16.80;15.60;;;4.30;99.90;;;;;;4993690;28;20188;-45
2023/01/31 00:09:43;;;;;;;16.07;15.17;;;4.20;99.90;;;;;;4995756;28;20315;-46
2023/01/31 00:12:09;;;;;;;16.83;15.37;;;4.30;99.90;;;;;;4997212;28;21040;-47
2023/01/31 00:14:34;;;;;;;17.93;16.50;;;4.30;99.90;;;;;;4995168;28;20201;-46
2023/01/31 00:17:00;;;;;;;16.63;15.47;;;4.10;99.90;;;;;;4978156;28;20187;-47
2023/01/31 00:19:26;;;;;;;16.03;14.93;;;4.10;99.90;;;;;;4991707;28;20285;-46
2023/01/31 00:21:52;;;;;;;17.23;15.50;;;4.00;99.90;;;;;;4991963;28;20238;-44
2023/01/31 00:24:18;;;;;;;18.05;16.08;;;4.00;99.90;;;;;;5001598;28;20247;-45
2023/01/31 00:26:44;;;;;;;16.50;15.23;;;4.00;99.90;;;;;;4992205;28;20183;-50
2023/01/31 00:29:10;;;;;;;16.97;15.27;;;4.00;99.90;;;;;;4990470;28;20643;-44
2023/01/31 00:31:35;;;;;;;16.23;15.10;;;4.10;99.90;;;;;;4990771;28;20716;-44
2023/01/31 00:34:01;;;;;;;16.40;14.80;;;4.10;99.90;;;;;;4994815;28;20201;-43
2023/01/31 00:36:30;;;;;;;16.93;15.77;;;4.10;99.90;;;;;;4990018;28;20200;-43
2023/01/31 00:38:57;;;;;;;16.42;14.90;;;4.20;99.90;;;;;;4998337;28;20523;-43
2023/01/31 00:41:25;;;;;;;16.50;15.15;;;4.30;99.90;;;;;;4989677;28;20242;-43
2023/01/31 00:43:51;;;;;;;16.50;15.07;;;4.30;99.90;;;;;;4993578;28;20195;-44
2023/01/31 00:46:19;;;;;;;16.38;14.80;;;4.30;99.90;;;;;;4989994;28;20195;-45
2023/01/31 00:48:45;;;;;;;15.63;14.35;;;4.40;99.90;;;;;;5001186;28;20193;-42
2023/01/31 00:51:11;;;;;;;15.40;14.10;;;4.40;99.90;;;;;;4989805;28;20219;-44
2023/01/31 00:53:37;;;;;;;14.93;13.73;;;4.50;99.90;;;;;;4997752;28;20643;-45
2023/01/31 00:56:11;;;;;;;15.13;14.02;;;4.50;99.90;;;;;;4998390;28;20603;-46
2023/01/31 00:58:40;;;;;;;15.27;13.60;;;4.60;99.90;;;;;;4997835;28;20247;-45
2023/01/31 01:01:14;;;;;;;12.80;11.82;;;4.70;99.90;;;;;;4989758;28;20221;-43
2023/01/31 01:03:41;;;;;;;15.98;12.55;;;4.70;99.90;;;;;;4993544;28;20209;-46
2023/01/31 01:06:08;;;;;;;13.00;12.10;;;4.70;99.90;;;;;;5011252;28;20186;-45
2023/01/31 01:08:34;;;;;;;12.50;11.45;;;4.60;99.90;;;;;;4993643;28;20193;-44
2023/01/31 01:11:11;;;;;;;11.65;10.85;;;4.60;99.90;;;;;;5007493;28;20244;-47
2023/01/31 01:13:37;;;;;;;12.23;11.30;;;4.60;99.90;;;;;;4995776;28;20210;-44
2023/01/31 01:16:07;;;;;;;11.93;10.88;;;4.50;99.90;;;;;;4995892;28;20680;-45
2023/01/31 01:18:34;;;;;;;11.07;10.38;;;4.60;99.90;;;;;;5003746;28;20189;-43
2023/01/31 01:21:11;;;;;;;11.65;10.65;;;4.50;99.90;;;;;;4993123;28;20211;-45
2023/01/31 01:23:38;;;;;;;10.80;10.10;;;4.50;99.90;;;;;;4995875;28;20185;-44
2023/01/31 01:26:05;;;;;;;11.05;10.45;;;4.40;99.90;;;;;;4993629;28;20187;-46
2023/01/31 01:28:34;;;;;;;11.32;10.55;;;4.40;99.90;;;;;;5005531;28;20183;-45
2023/01/31 01:31:07;;;;;;;11.40;10.75;;;4.30;99.90;;;;;;5008039;28;20189;-43
2023/01/31 01:33:34;;;;;;;10.82;10.13;;;4.30;99.90;;;;;;4990843;28;20192;-46
2023/01/31 01:36:04;;;;;;;10.82;10.32;;;4.30;99.90;;;;;;5006813;28;20198;-46
2023/01/31 01:38:33;;;;;;;11.38;10.60;;;4.30;99.90;;;;;;4993968;28;20671;-43
2023/01/31 01:40:59;;;;;;;11.55;10.68;;;4.30;99.90;;;;;;4986788;28;20242;-46
2023/01/31 01:43:56;;;;;;;11.30;10.60;;;4.40;99.90;;;;;;4998018;28;20577;-45
2023/01/31 01:46:32;;;;;;;11.50;10.80;;;4.30;99.90;;;;;;4994686;28;20221;-44
2023/01/31 01:49:23;;;;;;;11.50;10.80;;;4.30;99.90;;;;;;4992564;28;20217;-46
2023/01/31 01:51:50;;;;;;;11.65;10.75;;;4.30;99.90;;;;;;4993299;28;20278;-44
2023/01/31 01:54:24;;;;;;;11.70;11.00;;;4.20;99.90;;;;;;4999527;28;20189;-43
2023/01/31 01:56:55;;;;;;;12.52;11.45;;;4.20;99.90;;;;;;4993502;28;20294;-46
2023/01/31 01:59:46;;;;;;;12.57;11.43;;;4.10;99.90;;;;;;5013658;28;20182;-46
2023/01/31 02:02:13;;;;;;;11.45;10.70;;;4.10;99.90;;;;;;4995939;28;20314;-45
2023/01/31 02:04:41;;;;;;;11.82;10.60;;;4.00;99.90;;;;;;4992920;28;20252;-50
2023/01/31 02:07:08;;;;;;;11.95;11.13;;;4.10;99.90;;;;;;4996687;28;20189;-43
2023/01/31 02:09:33;;;;;;;12.18;10.98;;;4.10;99.90;;;;;;4997215;28;20192;-44
2023/01/31 02:11:59;;;;;;;13.00;11.90;;;4.10;99.90;;;;;;4992049;28;20234;-44
2023/01/31 02:14:26;;;;;;;12.83;11.80;;;4.10;99.90;;;;;;4992940;28;20186;-43
2023/01/31 02:16:51;;;;;;;13.77;12.73;;;4.10;99.90;;;;;;5003849;28;20212;-44
2023/01/31 02:19:53;;;;;;;13.53;12.50;;;4.10;99.90;;;;;;5002392;28;20224;-45
2023/01/31 02:22:53;;;;;;;13.57;12.50;;;4.10;99.90;;;;;;4998294;28;20195;-46
2023/01/31 02:25:30;;;;;;;14.05;13.15;;;4.10;99.90;;;;;;4994460;28;20240;-45
2023/01/31 02:28:23;;;;;;;14.70;13.40;;;4.10;99.90;;;;;;4985816;28;20189;-44
2023/01/31 02:31:33;;;;;;;14.80;13.50;;;4.10;99.90;;;;;;4997697;28;20329;-45
2023/01/31 02:34:02;;;;;;;15.20;13.77;;;4.10;99.90;;;;;;5002835;28;20208;-48
2023/01/31 02:36:55;;;;;;;14.20;13.05;;;4.10;99.90;;;;;;4991374;28;20283;-44
2023/01/31 02:39:32;;;;;;;22.88;14.38;;;4.10;99.90;;;;;;5002613;28;20191;-46
2023/01/31 02:42:42;;;;;;;15.38;13.98;;;4.10;99.90;;;;;;4994016;28;20230;-46
2023/01/31 02:45:12;;;;;;;14.45;12.93;;;4.20;99.90;;;;;;4979553;28;20209;-45
2023/01/31 02:47:59;;;;;;;14.98;13.40;;;4.10;99.90;;;;;;5003244;28;20230;-48
2023/01/31 02:50:40;;;;;;;13.55;12.27;;;4.20;99.90;;;;;;5004653;28;20190;-47
2023/01/31 02:53:16;;;;;;;13.57;12.50;;;4.20;99.90;;;;;;5005376;28;20222;-46
2023/01/31 02:56:16;;;;;;;15.57;13.10;;;4.30;99.90;;;;;;5003519;28;20176;-46
2023/01/31 02:58:59;;;;;;;14.52;13.00;;;4.30;99.90;;;;;;4969445;28;20189;-50
2023/01/31 03:01:32;;;;;;;13.65;12.40;;;4.30;99.90;;;;;;5004168;28;20296;-48
2023/01/31 03:04:04;;;;;;;13.95;12.75;;;4.30;99.90;;;;;;4991390;28;20177;-44
2023/01/31 03:06:32;;;;;;;14.52;13.23;;;4.30;99.90;;;;;;4991502;28;20273;-43
2023/01/31 03:09:20;;;;;;;13.38;12.30;;;4.40;99.90;;;;;;4991708;28;20189;-48
2023/01/31 03:11:52;;;;;;;13.50;12.50;;;4.40;99.90;;;;;;4993902;28;20197;-44
2023/01/31 03:14:28;;;;;;;16.02;13.25;;;4.40;99.90;;;;;;5000523;28;20248;-44
2023/01/31 03:17:32;;;;;;;13.27;12.10;;;4.50;99.90;;;;;;4994380;28;20546;-43
2023/01/31 03:20:14;;;;;;;13.25;12.07;;;4.50;99.90;;;;;;4992296;28;20688;-47
2023/01/31 03:22:45;;;;;;;13.93;11.60;;;4.50;99.90;;;;;;4996753;28;20213;-50
2023/01/31 03:25:13;;;;;;;12.98;11.90;;;4.50;99.90;;;;;;4977021;28;20334;-45
2023/01/31 03:27:44;;;;;;;12.75;11.40;;;4.40;99.90;;;;;;4992629;28;20539;-48
2023/01/31 03:30:22;;;;;;;12.40;11.30;;;4.40;99.90;;;;;;5007501;28;20256;-45
2023/01/31 03:32:54;;;;;;;12.73;11.32;;;4.40;99.90;;;;;;4997321;28;20280;-46
2023/01/31 03:35:24;;;;;;;12.80;11.75;;;4.40;99.90;;;;;;5003608;28;20522;-44
2023/01/31 03:37:58;;;;;;;13.23;12.23;;;4.50;99.90;;;;;;4990594;28;20228;-44
2023/01/31 03:40:30;;;;;;;14.13;13.05;;;4.40;99.90;;;;;;4991081;28;20671;-46
2023/01/31 03:43:11;;;;;;;13.68;12.75;;;4.30;99.90;;;;;;4991732;28;20200;-49
2023/01/31 03:45:58;;;;;;;15.02;13.40;;;4.20;99.90;;;;;;4998190;28;20191;-45
2023/01/31 03:48:32;;;;;;;16.77;12.75;;;4.20;99.90;;;;;;4994862;28;20196;-46
2023/01/31 03:51:02;;;;;;;13.32;12.43;;;4.20;99.90;;;;;;4998754;28;20222;-46
2023/01/31 03:53:39;;;;;;;15.40;13.85;;;4.20;99.90;;;;;;4994922;28;20533;-44
2023/01/31 03:56:38;;;;;;;13.60;12.57;;;4.10;99.90;;;;;;5006750;28;20213;-45
2023/01/31 03:59:10;;;;;;;13.15;12.20;;;4.10;99.90;;;;;;5000101;28;20210;-42
2023/01/31 04:01:41;;;;;;;12.40;11.40;;;4.00;99.90;;;;;;4977376;28;20304;-46
2023/01/31 04:04:10;;;;;;;12.75;11.52;;;4.00;99.90;;;;;;4990597;28;20261;-46
2023/01/31 04:06:36;;;;;;;13.18;12.27;;;4.00;99.90;;;;;;4989200;28;20219;-46
2023/01/31 04:09:01;;;;;;;12.53;11.70;;;3.90;99.90;;;;;;4990809;28;20191;-44
2023/01/31 04:11:28;;;;;;;13.03;12.03;;;3.90;99.90;;;;;;5003149;28;20661;-46
2023/01/31 04:13:54;;;;;;;13.32;12.40;;;3.90;99.90;;;;;;4997720;28;20214;-47
2023/01/31 04:16:20;;;;;;;12.53;11.43;;;3.90;99.90;;;;;;4992603;28;20188;-47
2023/01/31 04:18:45;;;;;;;13.53;12.53;;;3.90;99.90;;;;;;4991225;28;20249;-45
2023/01/31 04:21:13;;;;;;;12.63;11.63;;;3.80;99.90;;;;;;4989281;28;20218;-46
2023/01/31 04:23:39;;;;;;;12.90;11.80;;;3.80;99.90;;;;;;4997748;28;20219;-45
2023/01/31 04:26:05;;;;;;;12.80;11.90;;;3.80;99.90;;;;;;4995557;28;20229;-47
2023/01/31 04:28:30;;;;;;;12.30;11.60;;;3.90;99.90;;;;;;4993404;28;20188;-45
2023/01/31 04:30:56;;;;;;;13.07;12.07;;;3.90;99.90;;;;;;4993440;28;20553;-47
2023/01/31 04:33:23;;;;;;;13.00;12.10;;;3.90;99.90;;;;;;4989578;28;20198;-46
2023/01/31 04:35:50;;;;;;;14.45;13.55;;;3.90;99.90;;;;;;4989004;28;20948;-46
2023/01/31 04:38:16;;;;;;;15.13;14.23;;;3.90;99.90;;;;;;4988444;28;20198;-45
2023/01/31 04:40:42;;;;;;;16.33;15.07;;;3.80;99.90;;;;;;4953668;28;1104743;-46
2023/01/31 04:43:07;;;;;;;16.33;15.23;;;3.70;99.90;;;;;;4991511;28;20192;-50
2023/01/31 04:45:33;;;;;;;15.97;14.87;;;3.70;99.90;;;;;;4989844;28;20206;-44
2023/01/31 04:47:58;;;;;;;16.63;15.00;;;3.60;99.90;;;;;;4991166;28;20518;-49
2023/01/31 04:50:24;;;;;;;15.30;14.07;;;3.60;99.90;;;;;;4989833;28;20286;-45
2023/01/31 04:52:50;;;;;;;16.07;14.70;;;3.50;99.90;;;;;;4989714;28;20316;-45
2023/01/31 04:55:16;;;;;;;14.48;13.50;;;3.60;99.90;;;;;;4991272;28;20206;-47
2023/01/31 04:57:42;;;;;;;15.52;14.48;;;3.50;99.90;;;;;;5002699;28;20176;-48
2023/01/31 05:00:09;;;;;;;15.57;14.17;;;3.50;99.90;;;;;;5022016;28;20695;-45
2023/01/31 05:02:35;;;;;;;16.10;14.70;;;3.60;99.90;;;;;;4992924;28;20215;-45
2023/01/31 05:05:01;;;;;;;15.30;14.27;;;3.60;99.90;;;;;;5009316;28;20178;-42
2023/01/31 05:07:27;;;;;;;17.10;14.40;;;3.60;99.90;;;;;;4994331;28;20191;-44
2023/01/31 05:09:52;;;;;;;15.03;13.53;;;3.70;99.90;;;;;;5003165;28;21148;-44
2023/01/31 05:12:18;;;;;;;15.60;14.20;;;3.70;99.90;;;;;;5008588;28;20673;-43
2023/01/31 05:14:44;;;;;;;15.20;14.10;;;3.80;99.90;;;;;;5009287;28;20179;-44
2023/01/31 05:17:09;;;;;;;15.70;14.33;;;3.80;99.90;;;;;;4997198;28;20314;-45
2023/01/31 05:19:35;;;;;;;15.30;13.90;;;3.80;99.90;;;;;;4976336;28;20525;-45
2023/01/31 05:22:00;;;;;;;15.77;14.30;;;3.90;99.90;;;;;;4989698;28;20210;-47
2023/01/31 05:24:32;;;;;;;14.37;13.47;;;3.90;99.90;;;;;;4990303;28;20208;-43
2023/01/31 05:27:00;;;;;;;15.80;13.70;;;3.90;99.90;;;;;;4990667;28;20617;-44
2023/01/31 05:29:26;;;;;;;15.00;13.68;;;3.90;99.90;;;;;;4989376;28;20203;-45
2023/01/31 05:31:53;;;;;;;15.18;14.00;;;3.90;99.90;;;;;;4990222;28;20191;-43
2023/01/31 05:34:19;;;;;;;15.48;14.30;;;4.00;99.90;;;;;;4989659;28;20654;-44
2023/01/31 05:36:45;;;;;;;16.00;14.50;;;3.90;99.90;;;;;;4996808;28;20192;-46
2023/01/31 05:39:11;;;;;;;15.13;13.88;;;4.00;99.90;;;;;;4998521;28;20470;-45
2023/01/31 05:41:37;;;;;;;14.03;12.87;;;4.00;99.90;;;;;;4997284;28;20279;-42
2023/01/31 05:44:02;;;;;;;14.33;13.20;;;4.00;99.90;;;;;;4998962;28;20183;-43
2023/01/31 05:46:28;;;;;;;15.40;14.00;;;4.00;99.90;;;;;;5006123;28;20881;-47
2023/01/31 05:48:54;;;;;;;24.00;21.43;;;4.00;99.90;;;;;;4989980;28;20214;-44
2023/01/31 05:51:19;;;;;;;15.60;13.43;;;4.10;99.90;;;;;;4994150;28;20231;-44
2023/01/31 05:53:46;;;;;;;15.87;14.60;;;4.10;99.90;;;;;;4995131;28;20221;-44
2023/01/31 05:56:12;;;;;;;17.08;15.93;;;4.00;99.90;;;;;;5012233;28;20160;-43
2023/01/31 05:58:38;;;;;;;17.00;15.65;;;4.00;99.90;;;;;;5016690;28;20171;-43
2023/01/31 06:01:04;;;;;;;17.20;15.70;;;4.00;99.90;;;;;;5014528;28;20216;-43
2023/01/31 06:03:29;;;;;;;16.17;14.50;;;4.10;99.90;;;;;;4992538;28;20177;-43
2023/01/31 06:05:55;;;;;;;20.23;18.60;;;4.00;99.90;;;;;;4992479;28;20408;-46
2023/01/31 06:08:20;;;;;;;18.30;16.53;;;3.90;99.90;;;;;;4992470;28;20160;-42
2023/01/31 06:10:46;;;;;;;16.10;14.73;;;3.90;99.90;;;;;;4992391;28;20786;-47
2023/01/31 06:13:11;;;;;;;16.47;14.97;;;3.90;99.90;;;;;;4975132;28;20180;-46
2023/01/31 06:15:44;;;;;;;16.47;14.87;;;3.80;99.90;;;;;;4992223;28;20162;-43
2023/01/31 06:18:10;;;;;;;17.58;15.98;;;3.80;99.90;;;;;;4992472;28;20541;-43
2023/01/31 06:20:37;;;;;;;15.25;14.00;;;3.80;99.90;;;;;;4992147;28;20621;-42
2023/01/31 06:23:03;;;;;;;15.60;14.40;;;3.80;99.90;;;;;;4998353;28;20185;-44
2023/01/31 06:25:29;;;;;;;15.40;14.20;;;3.80;99.90;;;;;;4995235;28;20186;-43
2023/01/31 06:27:55;;;;;;;16.43;15.13;;;3.90;99.90;;;;;;5003686;28;20207;-43
2023/01/31 06:30:21;;;;;;;15.93;14.75;;;3.90;99.90;;;;;;4992514;28;20984;-42
2023/01/31 06:32:46;;;;;;;15.83;14.37;;;3.90;99.90;;;;;;4992666;28;20270;-44
2023/01/31 06:35:12;;;;;;;15.00;13.70;;;4.00;99.90;;;;;;4992499;28;20246;-44
2023/01/31 06:37:38;;;;;;;15.17;13.67;;;4.00;99.90;;;;;;4993047;28;20191;-42
2023/01/31 06:40:04;;;;;;;16.27;14.63;;;4.00;99.90;;;;;;4991470;28;20195;-42
2023/01/31 06:42:29;;;;;;;15.68;14.38;;;4.10;99.90;;;;;;4991471;28;20245;-44
2023/01/31 06:44:55;;;;;;;15.27;14.00;;;4.10;99.90;;;;;;4991771;28;20671;-42
2023/01/31 06:47:21;;;;;;;15.03;14.03;;;4.20;99.90;;;;;;4991818;28;20196;-49
2023/01/31 06:49:46;;;;;;;15.33;14.20;;;4.20;99.90;;;;;;4992021;28;20689;-44
2023/01/31 06:52:12;;;;;;;16.40;15.13;;;4.20;99.90;;;;;;4992736;28;20183;-42
2023/01/31 06:54:38;;;;;;;15.30;14.27;;;4.20;99.90;;;;;;4992053;28;20615;-45
2023/01/31 06:57:03;;;;;;;16.27;15.07;;;4.10;99.90;;;;;;4992410;28;20180;-43
2023/01/31 06:59:29;;;;;;;16.17;14.60;;;4.10;99.90;;;;;;5007116;28;20191;-46
2023/01/31 07:01:54;;;;;;;16.10;15.10;;;4.00;99.90;;;;;;5000478;28;20230;-43
2023/01/31 07:04:20;;;;;;;16.23;14.63;;;3.90;99.90;;;;;;4996423;28;20193;-43
2023/01/31 07:06:46;;;;;;;15.53;14.60;;;4.00;99.90;;;;;;5006051;28;20214;-44
2023/01/31 07:09:11;;;;;;;13.90;13.03;;;4.00;99.90;;;;;;4997439;28;20337;-44
2023/01/31 07:11:37;;;;;;;15.33;13.90;;;4.00;99.90;;;;;;4991063;28;20187;-45
2023/01/31 07:14:03;;;;;;;15.00;13.80;;;4.00;99.90;;;;;;4991738;28;20234;-47
2023/01/31 07:16:30;;;;;;;15.27;13.73;;;4.00;99.90;;;;;;4992079;28;20430;-43
2023/01/31 07:18:56;;;;;;;14.70;13.70;;;4.00;99.90;;;;;;4991259;28;20198;-47
2023/01/31 07:21:22;;;;;;;14.10;13.20;;;4.00;99.90;;;;;;4992396;28;20541;-43
2023/01/31 07:23:48;;;;;;;15.30;14.10;;;4.10;99.90;;;;;;4991054;28;20877;-42
2023/01/31 07:26:14;;;;;;;14.00;13.03;;;4.10;99.90;;;;;;4992804;28;20197;-43
2023/01/31 07:28:39;;;;;;;14.73;13.67;;;4.10;99.90;;;;;;4990758;28;20554;-43
2023/01/31 07:31:09;;;;;;;15.30;14.03;;;4.20;99.90;;;;;;5000781;28;20205;-42
2023/01/31 07:33:35;;;;;;;14.40;13.30;;;4.20;99.90;;;;;;4993774;28;20443;-44
2023/01/31 07:36:03;;;;;;;14.97;13.57;;;4.30;99.90;;;;;;4990729;28;20554;-45
2023/01/31 07:38:29;;;;;;;14.95;13.68;;;4.30;99.90;;;;;;4991143;28;20516;-43
2023/01/31 07:41:02;;;;;;;14.85;13.70;;;4.40;99.90;;;;;;4991026;28;20241;-46
2023/01/31 07:43:27;;;;;;;60.13;39.22;;;4.40;99.90;;;;;;4991460;28;20201;-46
2023/01/31 07:45:54;;;;;;;14.40;13.40;;;4.50;99.90;;;;;;4991672;28;20212;-43
2023/01/31 07:48:22;;;;;;;15.32;13.55;;;4.40;99.90;;;;;;4990639;28;20429;-44
2023/01/31 07:50:59;;;;;;;19.48;17.77;;;4.40;99.90;;;;;;4990316;28;20929;-44
2023/01/31 07:53:31;;;;;;;13.38;12.45;;;4.50;99.90;;;;;;4990630;28;20738;-47
2023/01/31 07:56:14;;;;;;;14.40;13.15;;;4.50;99.90;;;;;;4991746;28;20195;-43
2023/01/31 07:58:42;;;;;;;13.95;12.75;;;4.50;99.90;;;;;;5000581;28;20190;-48
2023/01/31 08:03:58;;;;;;;12.40;11.40;;;4.50;99.90;;;;;;5003726;28;20259;-48
2023/01/31 08:06:26;;;;;;;11.20;10.40;;;4.60;99.90;;;;;;4992243;28;20198;-45
2023/01/31 08:08:51;;;;;;;11.85;10.75;;;4.60;99.90;;;;;;5001896;28;20183;-44
2023/01/31 08:11:17;;;;;;;12.43;11.40;;;4.60;99.90;;;;;;4991378;28;20194;-45
2023/01/31 08:13:43;;;;;;;13.97;12.97;;;4.60;99.90;;;;;;4991195;28;20253;-46
2023/01/31 08:16:09;;;;;;;13.27;12.47;;;4.60;99.90;;;;;;5001969;28;20930;-45
2023/01/31 08:18:36;;;;;;;13.23;11.98;;;4.60;99.90;;;;;;4990952;28;20205;-43
2023/01/31 08:21:01;;;;;;;12.90;11.95;;;4.50;99.90;;;;;;5002673;28;20202;-43
2023/01/31 08:23:27;;;;;;;13.27;12.27;;;4.60;99.90;;;;;;4999218;28;20733;-47
2023/01/31 08:25:59;;;;;;;13.20;12.20;;;4.70;99.90;;;;;;4990158;28;20582;-45
2023/01/31 08:28:25;;;;;;;13.07;11.90;;;4.80;99.90;;;;;;4991291;28;20182;-46
2023/01/31 08:30:50;;;;;;;12.30;11.30;;;5.10;99.90;;;;;;4997951;28;20237;-42
2023/01/31 08:33:16;;;;;;;11.60;10.70;;;5.50;99.90;;;;;;4995809;28;20203;-43
2023/01/31 08:35:42;;;;;;;12.47;11.47;;;6.00;99.90;;;;;;4990083;28;20890;-44
2023/01/31 08:38:07;;;;;;;11.70;10.90;;;6.30;99.90;;;;;;4990227;28;20219;-44
2023/01/31 08:40:33;;;;;;;12.40;11.20;;;6.50;99.90;;;;;;4991557;28;20758;-47
2023/01/31 08:42:59;;;;;;;10.83;9.90;;;6.50;99.90;;;;;;4989867;28;20290;-48
2023/01/31 08:45:29;;;;;;;11.57;10.70;;;6.40;99.90;;;;;;4990047;28;20270;-45
2023/01/31 08:47:56;;;;;;;11.60;10.60;;;6.20;99.90;;;;;;4990061;28;20171;-46
2023/01/31 08:50:23;;;;;;;11.50;10.60;;;5.90;99.90;;;;;;4990037;28;20172;-45
2023/01/31 08:52:56;;;;;;;11.57;10.77;;;5.80;99.90;;;;;;4992648;28;20199;-46
2023/01/31 08:55:23;;;;;;;10.25;9.60;;;5.70;99.90;;;;;;4994325;28;20225;-47
2023/01/31 08:57:50;;;;;;;12.25;11.00;;;5.70;99.90;;;;;;4990193;28;20192;-47
2023/01/31 09:00:16;;;;;;;11.30;10.18;;;5.70;99.90;;;;;;4996035;28;20214;-43
2023/01/31 09:02:42;;;;;;;11.23;10.23;;;5.60;99.90;;;;;;4989670;28;20650;-42
2023/01/31 09:05:08;;;;;;;12.40;11.10;;;5.60;99.90;;;;;;4989518;28;20186;-46
2023/01/31 09:07:34;;;;;;;10.70;10.00;;;5.60;99.90;;;;;;4989766;28;20281;-44
2023/01/31 09:10:00;;;;;;;10.63;9.80;;;5.60;99.90;;;;;;4989940;28;20247;-45
2023/01/31 09:12:25;;;;;;;12.07;10.93;;;5.70;99.90;;;;;;4989622;28;20192;-43
2023/01/31 09:14:51;;;;;;;10.57;9.67;;;5.70;99.90;;;;;;4989869;28;20274;-44
2023/01/31 09:17:17;;;;;;;11.70;10.90;;;5.80;99.90;;;;;;4989595;28;20222;-47
2023/01/31 09:19:43;;;;;;;11.20;10.30;;;5.80;99.90;;;;;;4989552;28;20839;-47
2023/01/31 09:22:08;;;;;;;11.43;10.50;;;5.70;99.90;;;;;;4994495;28;20855;-45
2023/01/31 09:24:34;;;;;;;11.27;10.40;;;5.60;99.90;;;;;;5010164;28;20209;-49
2023/01/31 09:27:00;;;;;;;11.03;10.03;;;5.70;99.90;;;;;;5013007;28;20717;-43
2023/01/31 09:29:27;;;;;;;11.13;10.33;;;5.80;99.90;;;;;;5005483;28;20180;-46
2023/01/31 09:31:53;;;;;;;11.77;10.70;;;5.90;99.90;;;;;;4993042;28;20183;-45
2023/01/31 09:34:19;;;;;;;11.90;11.20;;;5.90;99.90;;;;;;4993165;28;20695;-47
2023/01/31 09:36:44;;;;;;;11.43;10.63;;;6.00;99.90;;;;;;4993221;28;20203;-47
2023/01/31 09:39:11;;;;;;;11.23;10.40;;;6.30;99.90;;;;;;4993102;28;20323;-45
2023/01/31 09:42:00;;;;;;;12.27;11.45;;;6.70;99.90;;;;;;4993039;28;20235;-48
2023/01/31 09:44:33;;;;;;;10.40;9.80;;;7.50;99.90;;;;;;4993031;28;20309;-50
2023/01/31 09:47:27;;;;;;;11.40;10.40;;;7.70;98.50;;;;;;4993066;28;20530;-48
2023/01/31 09:50:21;;;;;;;11.10;10.40;;;7.70;98.30;;;;;;4992956;28;20410;-43
2023/01/31 09:52:49;;;;;;;10.40;9.60;;;7.50;98.70;;;;;;4986070;28;20434;-44
2023/01/31 09:55:27;;;;;;;10.80;9.75;;;7.30;99.50;;;;;;4992666;28;20430;-44
2023/01/31 09:58:23;;;;;;;10.60;10.10;;;7.10;99.90;;;;;;4992210;28;20179;-49
2023/01/31 10:01:18;;;;;;;10.98;10.18;;;6.90;99.90;;;;;;4999982;28;20231;-46
2023/01/31 10:03:48;;;;;;;10.48;9.88;;;6.70;99.90;;;;;;5011945;28;20179;-44
2023/01/31 10:06:34;;;;;;;10.93;10.30;;;6.50;99.90;;;;;;5012261;28;20186;-47
2023/01/31 10:09:09;;;;;;;11.23;10.18;;;6.50;99.90;;;;;;5012153;28;20183;-47
2023/01/31 10:11:41;;;;;;;11.75;10.90;;;6.70;99.90;;;;;;5012214;28;20195;-47
2023/01/31 10:14:21;;;;;;;11.70;10.70;;;6.80;99.90;;;;;;5011704;28;20671;-44
2023/01/31 10:17:01;;;;;;;11.53;10.57;;;7.10;99.90;;;;;;5011711;28;20461;-45
2023/01/31 10:19:33;;;;;;;11.57;10.60;;;7.10;99.90;;;;;;5011715;28;20747;-50
2023/01/31 10:22:10;;;;;;;11.63;10.77;;;6.90;99.90;;;;;;5011843;28;20202;-45
2023/01/31 10:24:53;;;;;;;11.90;10.97;;;6.90;99.90;;;;;;5011607;28;20830;-48
2023/01/31 10:27:36;;;;;;;10.73;9.90;;;7.00;99.90;;;;;;5011766;28;20492;-46
2023/01/31 10:30:05;;;;;;;11.13;10.18;;;6.90;99.90;;;;;;4998356;28;20234;-46
2023/01/31 10:32:36;;;;;;;12.63;11.35;;;6.80;99.90;;;;;;4991859;28;20188;-48
2023/01/31 10:35:30;;;;;;;12.05;11.20;;;6.80;99.90;;;;;;4992980;28;20250;-46
2023/01/31 10:38:16;;;;;;;11.33;10.60;;;6.80;99.90;;;;;;5008616;28;20500;-45
2023/01/31 10:40:47;;;;;;;11.40;10.50;;;6.90;99.60;;;;;;5007382;28;20470;-42
2023/01/31 10:43:21;;;;;;;10.93;10.20;;;6.80;99.80;;;;;;4992092;28;20897;-46
2023/01/31 10:45:47;;;;;;;12.38;11.50;;;6.80;99.90;;;;;;4991550;28;20233;-47
2023/01/31 10:48:24;;;;;;;12.00;10.67;;;6.80;99.60;;;;;;4991848;28;20542;-47
2023/01/31 10:51:28;;;;;;;11.50;10.80;;;6.90;99.20;;;;;;4991922;28;20192;-46
2023/01/31 10:54:28;;;;;;;10.53;9.60;;;6.80;99.60;;;;;;4996252;28;20194;-45
2023/01/31 10:56:54;;;;;;;11.47;10.57;;;6.90;99.90;;;;;;5011195;28;20492;-45
2023/01/31 10:59:22;;;;;;;12.20;11.20;;;6.90;99.00;;;;;;5000292;28;20848;-46
2023/01/31 11:01:48;;;;;;;12.32;11.35;;;7.00;99.80;;;;;;4991356;28;20948;-48
2023/01/31 11:04:26;;;;;;;11.27;10.57;;;7.00;99.40;;;;;;4992338;28;20235;-45
2023/01/31 11:06:52;;;;;;;12.40;11.20;;;6.90;98.90;;;;;;4991271;28;20433;-48
2023/01/31 11:09:20;;;;;;;11.80;10.65;;;7.00;98.60;;;;;;5001877;28;20440;-45
2023/01/31 11:11:55;;;;;;;11.43;10.65;;;6.80;98.00;;;;;;5010781;28;20187;-49
2023/01/31 11:14:21;;;;;;;11.37;10.57;;;6.80;98.00;;;;;;4990170;28;20237;-49
2023/01/31 11:16:49;;;;;;;12.43;11.32;;;6.60;98.90;;;;;;5008596;28;20520;-45
2023/01/31 11:19:42;;;;;;;11.10;10.30;;;6.70;99.50;;;;;;4997899;28;20196;-45
2023/01/31 11:22:16;;;;;;;11.52;10.63;;;6.70;99.30;;;;;;4991071;28;20666;-46
2023/01/31 11:24:47;;;;;;;10.70;9.93;;;6.70;99.60;;;;;;5000107;28;20193;-48
2023/01/31 11:27:24;;;;;;;10.88;10.00;;;6.70;99.10;;;;;;5010614;28;20190;-44
2023/01/31 11:29:53;;;;;;;10.90;9.90;;;6.70;98.60;;;;;;5010750;28;20672;-45
2023/01/31 11:32:22;;;;;;;12.02;11.13;;;6.80;98.60;;;;;;4993862;28;20191;-47
2023/01/31 11:35:04;;;;;;;12.50;11.70;;;6.70;99.20;;;;;;4990928;28;20713;-48
2023/01/31 11:37:31;;;;;;;12.25;11.50;;;6.80;99.70;;;;;;4990864;28;20202;-43
2023/01/31 11:40:18;;;;;;;12.93;11.73;;;6.80;99.10;;;;;;4990744;28;20340;-47
2023/01/31 11:42:54;;;;;;;12.40;11.48;;;6.80;98.90;;;;;;4990870;28;20215;-44
2023/01/31 11:45:22;;;;;;;12.07;11.18;;;6.90;98.80;;;;;;4990447;28;20259;-50
2023/01/31 11:47:51;;;;;;;11.88;10.90;;;7.00;98.10;;;;;;4990360;28;20583;-46
2023/01/31 11:50:20;;;;;;;12.65;11.85;;;7.00;98.70;;;;;;4990486;28;20179;-45
2023/01/31 11:52:46;;;;;;;11.60;10.43;;;7.00;97.60;;;;;;4990305;28;20210;-44
2023/01/31 11:55:17;;;;;;;12.60;11.70;;;6.90;97.30;;;;;;4990460;28;20522;-47
2023/01/31 11:57:43;;;;;;;12.10;11.20;;;7.00;97.80;;;;;;4990614;28;20918;-47
2023/01/31 12:00:25;;;;;;;14.60;13.60;;;7.10;97.90;;;;;;4991636;28;20297;-46
2023/01/31 12:03:08;;;;;;;11.90;11.10;;;7.10;97.50;;;;;;4989857;28;20223;-46
2023/01/31 12:05:41;;;;;;;12.30;11.37;;;7.10;98.10;;;;;;4990213;28;20407;-47
2023/01/31 12:08:39;;;;;;;12.10;10.90;;;7.30;97.90;;;;;;4989999;28;20477;-45
2023/01/31 12:11:19;;;;;;;12.60;11.80;;;7.40;96.80;;;;;;4990163;28;20423;-46
2023/01/31 12:14:06;;;;;;;12.40;11.40;;;7.40;96.60;;;;;;4989961;28;20187;-46
2023/01/31 12:16:33;;;;;;;12.90;12.20;;;7.30;97.00;;;;;;4989675;28;20812;-44
2023/01/31 12:19:10;;;;;;;12.60;11.70;;;7.50;97.20;;;;;;4989792;28;20411;-46
2023/01/31 12:21:43;;;;;;;12.10;11.20;;;7.70;96.70;;;;;;4989560;28;20490;-47
2023/01/31 12:24:23;;;;;;;12.17;11.37;;;7.70;95.90;;;;;;4990241;28;20470;-48
2023/01/31 12:26:55;;;;;;;13.70;12.50;;;7.60;96.50;;;;;;4990145;28;20485;-43
2023/01/31 12:29:27;;;;;;;11.87;11.00;;;7.40;96.60;;;;;;4998739;28;20442;-43
2023/01/31 12:32:00;;;;;;;12.47;11.67;;;7.30;96.60;;;;;;4989819;28;20427;-47
2023/01/31 12:34:39;;;;;;;14.53;13.33;;;7.40;97.30;;;;;;4988620;28;20435;-48
2023/01/31 12:37:14;;;;;;;11.60;10.80;;;7.30;96.50;;;;;;4990040;28;20546;-44
2023/01/31 12:40:06;;;;;;;12.15;11.23;;;7.30;97.30;;;;;;4989971;28;20437;-46
2023/01/31 12:42:45;;;;;;;13.15;11.88;;;7.30;96.70;;;;;;4989796;28;20231;-46
2023/01/31 12:45:14;;;;;;;12.60;11.70;;;7.40;97.50;;;;;;4990082;28;20188;-45
2023/01/31 12:47:49;;;;;;;12.90;11.73;;;7.40;98.10;;;;;;4989803;28;20443;-48
2023/01/31 12:50:46;;;;;;;12.55;11.65;;;7.20;97.10;;;;;;4988673;28;20981;-46
2023/01/31 12:53:32;;;;;;;12.95;11.88;;;7.10;98.20;;;;;;5000711;28;20190;-43
2023/01/31 12:56:09;;;;;;;12.60;11.80;;;6.80;98.60;;;;;;4994138;28;20188;-45
2023/01/31 12:59:08;;;;;;;13.50;12.48;;;6.80;99.90;;;;;;4991589;28;20209;-44
2023/01/31 13:02:01;;;;;;;14.23;13.23;;;6.50;99.90;;;;;;4993764;28;20218;-44